Time;durP1;ratioP1;P1;durP2;ratioP2;P2;SDS_P1;SDS_P2;PMS_P1;PMS_P2;Temp;Humidity;BMP_temperature;BMP_pressure;BME280_temperature;BME280_humidity;BME280_pressure;Samples;Min_cycle;Max_cycle;Signal;HPM_P1;HPM_P2
2022/05/22 00:00:41;;;;;;;6.30;3.07;;;;;;;22.34;100.00;98748.80;1724187;82;21058;-61
2022/05/22 00:03:09;;;;;;;7.50;3.30;;;;;;;22.23;100.00;98742.91;1724326;82;21067;-55
2022/05/22 00:05:37;;;;;;;7.33;3.23;;;;;;;22.18;100.00;98743.02;1751351;81;20901;-56
2022/05/22 00:08:06;;;;;;;7.60;2.87;;;;;;;22.19;100.00;98739.83;1750669;80;21224;-56
2022/05/22 00:10:33;;;;;;;5.83;2.90;;;;;;;22.22;100.00;98737.91;1750763;81;21450;-65
2022/05/22 00:13:00;;;;;;;3.93;2.27;;;;;;;22.17;100.00;98734.05;1750978;81;21063;-55
2022/05/22 00:15:27;;;;;;;6.27;2.70;;;;;;;22.10;100.00;98731.20;1751215;81;20979;-55
2022/05/22 00:17:54;;;;;;;9.00;3.10;;;;;;;22.05;100.00;98733.97;1751133;81;20987;-56
2022/05/22 00:20:23;;;;;;;5.03;2.90;;;;;;;22.05;100.00;98735.30;1752275;80;21109;-56
2022/05/22 00:22:50;;;;;;;6.83;2.63;;;;;;;22.11;100.00;98733.31;1750565;81;21540;-57
2022/05/22 00:25:17;;;;;;;6.40;3.17;;;;;;;22.11;100.00;98730.66;1751296;80;21145;-56
2022/05/22 00:27:46;;;;;;;6.17;2.63;;;;;;;22.02;100.00;98724.48;1729796;82;21000;-57
2022/05/22 00:30:13;;;;;;;6.97;2.70;;;;;;;21.96;100.00;98723.78;1751212;80;21074;-56
2022/05/22 00:32:41;;;;;;;7.23;2.87;;;;;;;21.96;100.00;98723.78;1750349;81;21471;-56
2022/05/22 00:35:10;;;;;;;10.17;3.80;;;;;;;;;;1751204;80;21579;-60
2022/05/22 00:37:39;;;;;;;8.37;3.37;;;;;;;22.07;100.00;98718.52;1751490;80;21128;-57
2022/05/22 00:40:07;;;;;;;6.33;2.80;;;;;;;22.07;100.00;98711.89;1750670;81;20943;-67
2022/05/22 00:42:36;;;;;;;6.40;3.30;;;;;;;22.08;100.00;98709.47;1750938;80;21090;-57
2022/05/22 00:45:07;;;;;;;7.93;3.17;;;;;;;21.84;100.00;98711.56;1751424;80;21883;-58
2022/05/22 00:47:35;;;;;;;5.77;2.90;;;;;;;22.06;100.00;98712.98;1750813;81;20994;-56
2022/05/22 00:50:04;;;;;;;4.67;2.57;;;;;;;21.94;100.00;98709.27;1750606;81;21013;-56
2022/05/22 00:52:44;;;;;;;6.07;2.83;;;;;;;22.06;100.00;98704.23;1751125;80;21850;-56
2022/05/22 00:55:21;;;;;;;6.20;3.17;;;;;;;21.99;100.00;98699.32;1751404;80;21050;-56
2022/05/22 00:57:50;;;;;;;8.03;2.93;;;;;;;21.81;100.00;98710.81;1749443;81;21232;-65
2022/05/22 01:00:21;;;;;;;9.03;3.43;;;;;;;20.50;100.00;98716.65;1751261;80;21940;-57
2022/05/22 01:05:36;;;;;;;5.47;3.40;;;;;;;20.28;100.00;98719.81;1750976;80;21483;-57
2022/05/22 01:08:06;;;;;;;6.37;3.50;;;;;;;20.19;100.00;98718.31;1751714;81;21778;-56
2022/05/22 01:10:41;;;;;;;5.97;3.03;;;;;;;20.17;100.00;98719.92;1751660;81;21120;-56
2022/05/22 01:13:08;;;;;;;5.43;3.20;;;;;;;20.36;100.00;98712.55;1751113;80;21050;-57
2022/05/22 01:15:35;;;;;;;6.97;3.33;;;;;;;20.54;100.00;98709.16;1751731;80;21480;-56
2022/05/22 01:18:06;;;;;;;5.07;3.40;;;;;;;20.53;100.00;98699.66;1751740;80;21109;-56
2022/05/22 01:20:33;;;;;;;6.03;2.90;;;;;;;20.48;100.00;98693.06;1751101;81;20947;-56
2022/05/22 01:23:00;;;;;;;5.67;3.27;;;;;;;20.48;100.00;98691.73;1750384;81;22499;-62
2022/05/22 01:25:29;;;;;;;8.50;3.50;;;;;;;20.51;100.00;98687.77;1751733;80;21058;-61
2022/05/22 01:27:58;;;;;;;6.83;3.27;;;;;;;20.54;100.00;98689.86;1751437;80;21073;-56
2022/05/22 01:30:27;;;;;;;6.10;3.10;;;;;;;20.61;100.00;98693.72;1752153;80;21043;-57
2022/05/22 01:33:00;;;;;;;6.93;3.37;;;;;;;20.47;100.00;98683.56;1750688;80;21043;-56
2022/05/22 01:35:28;;;;;;;5.87;3.27;;;;;;;21.50;100.00;98682.22;1751377;81;21262;-65
2022/05/22 01:37:57;;;;;;;7.90;3.47;;;;;;;21.02;100.00;98682.47;1751108;80;22376;-56
2022/05/22 01:40:25;;;;;;;6.30;3.57;;;;;;;21.19;100.00;98678.52;1751311;80;21022;-57
2022/05/22 01:42:53;;;;;;;8.90;3.57;;;;;;;21.04;100.00;98677.69;1750690;80;21085;-58
2022/05/22 01:45:24;;;;;;;6.03;3.80;;;;;;;21.01;100.00;98670.86;1751169;81;21069;-58
2022/05/22 01:47:51;;;;;;;6.33;3.40;;;;;;;21.09;100.00;98676.27;1721921;81;21429;-57
2022/05/22 01:50:20;;;;;;;8.03;3.77;;;;;;;21.02;100.00;98671.88;1721551;81;21512;-57
2022/05/22 01:52:48;;;;;;;9.27;3.67;;;;;;;21.26;100.00;98677.59;1750447;81;21504;-58
2022/05/22 01:55:17;;;;;;;5.53;3.20;;;;;;;21.36;100.00;98685.38;1751578;80;22276;-57
2022/05/22 01:57:46;;;;;;;9.57;3.50;;;;;;;21.32;100.00;98677.73;1761497;80;21058;-57
2022/05/22 02:00:17;;;;;;;5.47;3.50;;;;;;;21.73;100.00;98663.77;1751161;80;21164;-59
2022/05/22 02:02:44;;;;;;;6.00;3.50;;;;;;;22.44;100.00;98662.31;1738835;81;20988;-57
2022/05/22 02:05:16;;;;;;;5.73;3.13;;;;;;;22.48;100.00;98659.30;1750067;80;20951;-60
2022/05/22 02:10:28;;;;;;;5.47;3.47;;;;;;;22.11;100.00;98664.31;1652110;85;21056;-58
2022/05/22 02:12:57;;;;;;;6.77;3.67;;;;;;;21.81;100.00;98661.20;1720078;80;21283;-57
2022/05/22 02:15:24;;;;;;;6.00;3.73;;;;;;;21.85;100.00;98657.42;1750958;81;21003;-58
2022/05/22 02:17:53;;;;;;;6.47;3.50;;;;;;;21.96;100.00;98657.45;1721793;81;21827;-66
2022/05/22 02:20:21;;;;;;;7.97;3.63;;;;;;;22.67;100.00;98661.00;1751586;80;21085;-57
2022/05/22 02:22:53;;;;;;;6.43;3.47;;;;;;;22.82;100.00;98657.98;1751160;81;21165;-58
2022/05/22 02:25:24;;;;;;;7.28;3.72;;;;;;;23.22;100.00;98657.55;1752221;80;22255;-59
2022/05/22 02:27:58;;;;;;;6.13;3.83;;;;;;;23.17;100.00;98654.23;1750779;81;21649;-57
2022/05/22 02:30:30;;;;;;;6.60;3.93;;;;;;;23.14;100.00;98655.61;1751931;80;21011;-59
2022/05/22 02:32:57;;;;;;;7.25;3.77;;;;;;;23.42;100.00;98660.77;1752292;80;21085;-58
2022/05/22 02:35:24;;;;;;;8.30;3.70;;;;;;;22.33;100.00;98664.95;1751679;80;20998;-58
2022/05/22 02:37:54;;;;;;;9.30;3.97;;;;;;;22.10;100.00;98664.08;1750472;80;21466;-57
2022/05/22 02:40:25;;;;;;;10.53;3.40;;;;;;;22.06;100.00;98655.15;1749227;81;20954;-58
2022/05/22 02:42:55;;;;;;;8.40;3.53;;;;;;;22.01;100.00;98660.02;1751955;80;21058;-57
2022/05/22 02:45:28;;;;;;;6.90;3.50;;;;;;;23.25;100.00;98650.27;1750474;81;21102;-58
2022/05/22 02:47:58;;;;;;;4.37;3.10;;;;;;;22.07;100.00;98658.82;1751221;80;21798;-58
2022/05/22 02:50:27;;;;;;;6.40;4.00;;;;;;;23.24;100.00;98655.36;1752055;80;21480;-57
2022/05/22 02:52:56;;;;;;;6.47;3.22;;;;;;;23.52;100.00;98654.64;1750280;81;20935;-59
2022/05/22 02:55:24;;;;;;;7.07;3.50;;;;;;;23.48;100.00;98655.53;1720290;81;21057;-66
2022/05/22 02:57:52;;;;;;;4.43;3.20;;;;;;;23.89;100.00;98649.91;1751382;81;21423;-57
2022/05/22 03:00:26;;;;;;;7.10;3.47;;;;;;;23.91;100.00;98651.72;1751456;80;21094;-58
2022/05/22 03:02:59;;;;;;;6.03;3.37;;;;;;;24.00;100.00;98641.86;1750270;81;21874;-67
2022/05/22 03:06:37;;;;;;;6.97;2.70;;;;;;;24.04;100.00;98644.14;1739665;80;21464;-60
2022/05/22 03:07:58;;;;;;;6.53;3.30;;;;;;;24.00;100.00;98639.20;1729365;82;21041;-58
2022/05/22 03:10:30;;;;;;;6.10;2.97;;;;;;;24.18;100.00;98638.68;1731885;80;21489;-58
2022/05/22 03:12:57;;;;;;;4.90;2.83;;;;;;;24.27;100.00;98639.46;1731343;81;20980;-58
2022/05/22 03:15:27;;;;;;;6.77;3.07;;;;;;;24.13;100.00;98643.36;1731408;81;21443;-58
2022/05/22 03:17:54;;;;;;;7.17;2.50;;;;;;;24.24;100.00;98641.96;1732372;81;20998;-57
2022/05/22 03:20:23;;;;;;;7.70;2.20;;;;;;;22.99;100.00;98642.71;1732155;81;20971;-58
2022/05/22 03:22:50;;;;;;;5.43;3.00;;;;;;;22.11;100.00;98643.87;1732371;80;20983;-58
2022/05/22 03:25:18;;;;;;;3.40;2.37;;;;;;;22.05;100.00;98637.12;1731499;82;21058;-58
2022/05/22 03:27:45;;;;;;;7.13;3.07;;;;;;;22.06;100.00;98639.23;1716409;80;21254;-57
2022/05/22 03:30:13;;;;;;;8.93;2.57;;;;;;;22.11;100.00;98640.44;1733257;80;21114;-58
2022/05/22 03:32:42;;;;;;;9.30;2.37;;;;;;;21.95;100.00;98634.67;1732832;80;21066;-59
2022/05/22 03:35:10;;;;;;;8.83;2.53;;;;;;;22.17;100.00;98634.52;1732222;82;21052;-59
2022/05/22 03:37:38;;;;;;;7.93;3.00;;;;;;;21.88;100.00;98635.61;1732851;82;21064;-58
2022/05/22 03:40:07;;;;;;;9.37;3.90;;;;;;;23.05;100.00;98634.31;1733278;81;21250;-59
2022/05/22 03:42:34;;;;;;;7.03;2.93;;;;;;;23.58;100.00;98641.19;1734251;80;20996;-59
2022/05/22 03:45:01;;;;;;;4.70;2.07;;;;;;;22.47;100.00;98640.47;1732232;80;21557;-58
2022/05/22 03:47:29;;;;;;;5.70;2.00;;;;;;;21.93;100.00;98655.94;1734414;80;21018;-59
2022/05/22 03:50:12;;;;;;;4.45;2.10;;;;;;;23.25;100.00;98636.20;1732703;82;26566;-58
2022/05/22 03:52:42;;;;;;;5.77;1.80;;;;;;;23.45;100.00;98633.02;1733581;80;21135;-62
2022/05/22 03:55:13;;;;;;;6.70;1.80;;;;;;;23.84;100.00;98630.10;1735927;80;21537;-59
2022/05/22 03:57:47;;;;;;;5.65;1.45;;;;;;;24.35;100.00;98641.89;1733554;80;21050;-57
2022/05/22 04:00:16;;;;;;;7.47;1.27;;;;;;;25.44;94.36;98640.80;1733353;80;21524;-66
2022/05/22 04:02:43;;;;;;;3.60;1.30;;;;;;;26.39;82.23;98637.55;1731869;82;21007;-63
2022/05/22 04:05:10;;;;;;;3.60;1.37;;;;;;;27.41;68.49;98640.66;1714272;81;21372;-59
2022/05/22 04:07:42;;;;;;;5.53;1.67;;;;;;;28.16;58.66;98652.89;1752196;80;21043;-58
2022/05/22 04:10:11;;;;;;;4.87;1.57;;;;;;;28.29;53.75;98659.20;1751998;80;21398;-58
2022/05/22 04:12:39;;;;;;;5.80;1.30;;;;;;;28.01;50.82;98660.50;1750851;80;21564;-66
2022/05/22 04:15:13;;;;;;;5.30;1.40;;;;;;;27.79;50.98;98657.73;1721310;81;21062;-60
2022/05/22 04:17:37;;;;;;;3.87;1.03;;;;;;;27.84;49.67;98664.22;1750420;80;22240;-57
2022/05/22 04:20:08;;;;;;;4.83;1.32;;;;;;;27.36;50.47;98655.04;1750323;80;20932;-59
2022/05/22 04:25:23;;;;;;;4.90;1.27;;;;;;;28.27;49.05;98654.75;1751305;80;21855;-56
2022/05/22 04:27:52;;;;;;;7.63;1.73;;;;;;;29.14;45.11;98646.59;1750873;81;45153;-58
2022/05/22 04:30:20;;;;;;;4.97;1.20;;;;;;;29.24;42.86;98665.41;1721591;81;22246;-57
2022/05/22 04:32:52;;;;;;;4.63;1.10;;;;;;;29.27;41.54;98656.67;1749755;81;21637;-57
2022/05/22 04:35:21;;;;;;;5.63;1.00;;;;;;;29.56;41.26;98646.05;1750856;81;20954;-57
2022/05/22 04:37:49;;;;;;;6.20;1.57;;;;;;;29.91;39.57;98653.38;1751303;81;21210;-65
2022/05/22 04:40:16;;;;;;;4.62;1.20;;;;;;;30.19;38.40;98647.84;1750327;81;21003;-60
2022/05/22 04:42:44;;;;;;;3.77;1.40;;;;;;;30.67;37.62;98634.39;1718320;82;21094;-57
2022/05/22 04:45:12;;;;;;;3.55;1.35;;;;;;;30.97;36.26;98651.28;1703006;82;20948;-57
2022/05/22 04:47:56;;;;;;;3.20;1.20;;;;;;;31.21;35.48;98643.41;1729044;82;20944;-65
2022/05/22 04:50:25;;;;;;;3.40;1.17;;;;;;;31.50;35.22;98651.41;1726798;82;21527;-57
2022/05/22 04:53:04;;;;;;;3.67;1.15;;;;;;;31.61;34.75;98660.42;1697675;82;21019;-57
2022/05/22 04:55:33;;;;;;;4.00;1.10;;;;;;;31.60;34.59;98671.58;1727676;82;21189;-61
2022/05/22 04:58:02;;;;;;;3.65;1.20;;;;;;;31.02;34.14;98685.39;1729810;82;21411;-56
2022/05/22 05:00:32;;;;;;;4.90;1.10;;;;;;;30.20;34.34;98675.73;1729961;82;21000;-59
2022/05/22 05:03:01;;;;;;;2.98;1.10;;;;;;;28.92;36.25;98661.33;1729271;82;21501;-56
2022/05/22 05:05:29;;;;;;;3.80;1.00;;;;;;;28.27;37.82;98657.44;1728402;82;21110;-64
2022/05/22 05:07:57;;;;;;;7.70;1.07;;;;;;;27.69;38.41;98647.44;1723257;82;22229;-56
2022/05/22 05:10:32;;;;;;;5.70;1.23;;;;;;;26.92;40.14;98659.27;1722520;82;21070;-56
2022/05/22 05:13:01;;;;;;;3.20;1.00;;;;;;;26.39;41.34;98662.92;1723265;82;20953;-56
2022/05/22 05:15:29;;;;;;;1.73;1.00;;;;;;;26.04;41.98;98660.29;1704794;83;20984;-66
2022/05/22 05:18:01;;;;;;;5.00;1.03;;;;;;;25.91;42.23;98661.55;1715514;82;21556;-57
2022/05/22 05:20:29;;;;;;;3.83;0.97;;;;;;;25.60;42.71;98650.36;1723827;82;21227;-58
2022/05/22 05:23:04;;;;;;;8.88;1.32;;;;;;;25.52;43.10;98649.30;1724721;83;21437;-56
2022/05/22 05:25:33;;;;;;;4.73;1.00;;;;;;;25.40;43.86;98638.53;1722046;82;21063;-62
2022/05/22 05:28:02;;;;;;;2.97;1.00;;;;;;;25.32;43.83;98630.80;1724057;82;21011;-57
2022/05/22 05:30:29;;;;;;;4.37;1.00;;;;;;;24.97;44.45;98640.22;1724110;82;21043;-60
2022/05/22 05:32:56;;;;;;;4.93;1.17;;;;;;;24.95;45.49;98646.41;1724045;82;21762;-67
2022/05/22 05:35:41;;;;;;;4.33;1.10;;;;;;;25.12;45.67;98635.52;1720697;83;21071;-56
2022/05/22 05:38:11;;;;;;;5.10;0.97;;;;;;;24.86;46.45;98642.21;1724340;83;20955;-57
2022/05/22 05:40:39;;;;;;;5.20;1.00;;;;;;;24.83;46.75;98639.62;1723246;83;21533;-58
2022/05/22 05:43:07;;;;;;;3.93;1.07;;;;;;;25.04;46.88;98634.41;1705862;83;21076;-56
2022/05/22 05:45:35;;;;;;;5.20;1.07;;;;;;;25.12;46.53;98622.18;1723237;82;21887;-57
2022/05/22 05:48:03;;;;;;;4.27;1.00;;;;;;;25.10;47.21;98611.04;1724375;83;21881;-56
2022/05/22 05:50:33;;;;;;;6.83;1.10;;;;;;;25.60;45.69;98621.80;1722752;82;21023;-65
2022/05/22 05:53:02;;;;;;;2.70;0.97;;;;;;;25.58;45.82;98628.02;1722571;82;21588;-56
2022/05/22 05:55:42;;;;;;;3.07;0.90;;;;;;;25.48;45.87;98632.38;1724289;83;21038;-56
2022/05/22 05:58:29;;;;;;;3.07;1.30;;;;;;;25.50;45.18;98640.08;1636078;87;21806;-57
2022/05/22 06:00:59;;;;;;;4.13;1.10;;;;;;;25.20;45.36;98638.70;1637689;86;21029;-60
2022/05/22 06:03:29;;;;;;;3.07;1.03;;;;;;;25.20;44.65;98606.14;1670139;83;20960;-57
2022/05/22 06:05:57;;;;;;;4.10;1.10;;;;;;;24.95;44.91;98638.96;1724018;82;21023;-66
2022/05/22 06:08:26;;;;;;;3.27;0.93;;;;;;;24.97;44.74;98653.55;1723397;82;21078;-57
2022/05/22 06:10:55;;;;;;;6.40;1.47;;;;;;;24.96;45.30;98645.85;1723078;82;21275;-63
2022/05/22 06:13:25;;;;;;;5.37;1.00;;;;;;;24.89;45.38;98654.88;1723184;82;21138;-56
2022/05/22 06:15:54;;;;;;;5.37;1.00;;;;;;;24.97;45.69;98655.44;1724627;83;20984;-56
2022/05/22 06:18:22;;;;;;;2.20;0.90;;;;;;;25.27;45.30;98656.84;1722018;83;20924;-58
2022/05/22 06:20:51;;;;;;;3.77;1.03;;;;;;;25.32;44.68;98650.80;1708164;83;21859;-64
2022/05/22 06:23:20;;;;;;;5.13;1.13;;;;;;;25.13;44.60;98647.73;1723496;82;21152;-59
2022/05/22 06:26:07;;;;;;;8.13;1.20;;;;;;;25.23;44.53;98640.17;1724089;82;21006;-59
2022/05/22 06:28:40;;;;;;;4.20;1.27;;;;;;;25.46;43.94;98643.94;1723610;83;20921;-59
2022/05/22 06:31:12;;;;;;;3.50;0.90;;;;;;;24.21;45.55;98638.62;1722934;82;21289;-56
2022/05/22 06:33:45;;;;;;;3.93;0.93;;;;;;;24.02;48.03;98645.56;1664225;82;21048;-58
2022/05/22 06:36:29;;;;;;;4.77;0.80;;;;;;;24.39;47.73;98634.87;1721152;82;21622;-58
2022/05/22 06:42:01;;;;;;;4.43;0.90;;;;;;;24.92;44.99;98641.70;1688672;83;21050;-57
2022/05/22 06:45:03;;;;;;;3.13;0.83;;;;;;;24.93;44.77;98647.84;1724010;83;21051;-56
2022/05/22 06:47:45;;;;;;;4.80;1.03;;;;;;;25.07;43.93;98652.97;1722570;82;21495;-56
2022/05/22 06:50:31;;;;;;;4.50;0.87;;;;;;;24.92;43.28;98645.70;1724040;83;21230;-56
2022/05/22 06:53:16;;;;;;;4.50;0.90;;;;;;;24.83;43.38;98646.28;1724107;82;21024;-57
2022/05/22 06:55:48;;;;;;;1.63;0.70;;;;;;;25.03;43.79;98642.70;1715178;82;20933;-56
2022/05/22 06:58:33;;;;;;;2.10;0.53;;;;;;;25.51;42.25;98637.08;1637014;87;21550;-66
2022/05/22 07:01:06;;;;;;;3.57;0.90;;;;;;;25.94;42.32;98623.50;1687169;83;21331;-63
2022/05/22 07:03:51;;;;;;;2.97;0.80;;;;;;;26.63;41.96;98616.06;1724828;82;21201;-56
2022/05/22 07:06:30;;;;;;;4.17;0.50;;;;;;;27.42;40.43;98610.09;1722551;82;20936;-66
2022/05/22 07:09:18;;;;;;;2.73;0.90;;;;;;;27.89;38.43;98613.10;1724104;82;20941;-58
2022/05/22 07:12:07;;;;;;;1.50;0.87;;;;;;;28.19;37.36;98612.81;1723851;83;21079;-61
2022/05/22 07:14:48;;;;;;;2.83;0.57;;;;;;;28.18;36.04;98607.20;1724227;83;21067;-57
2022/05/22 07:17:21;;;;;;;2.42;0.60;;;;;;;27.55;37.08;98609.55;1724043;82;21164;-59
2022/05/22 07:19:47;;;;;;;3.05;0.60;;;;;;;27.24;37.04;98618.11;1711689;83;21040;-67
2022/05/22 07:22:34;;;;;;;1.40;0.50;;;;;;;26.92;37.57;98621.27;1724083;82;21612;-56
2022/05/22 07:25:03;;;;;;;1.90;0.50;;;;;;;27.10;37.59;98613.07;1669351;83;21107;-57
2022/05/22 07:27:32;;;;;;;1.50;0.40;;;;;;;26.72;38.13;98620.02;1721515;82;21011;-64
2022/05/22 07:30:11;;;;;;;1.77;0.80;;;;;;;26.57;38.46;98624.08;1722811;82;21132;-57
2022/05/22 07:32:42;;;;;;;2.22;0.50;;;;;;;26.64;38.61;98624.33;1671381;82;21040;-57
2022/05/22 07:35:16;;;;;;;2.07;0.60;;;;;;;26.72;37.78;98616.00;1720827;83;21098;-58
2022/05/22 07:37:50;;;;;;;1.30;0.40;;;;;;;26.55;38.22;98616.93;1668349;82;21060;-58
2022/05/22 07:40:24;;;;;;;0.97;0.33;;;;;;;26.42;37.98;98618.20;1680803;83;21110;-64
2022/05/22 07:42:53;;;;;;;2.97;0.60;;;;;;;26.50;38.25;98617.14;1697021;83;21188;-60
2022/05/22 07:45:25;;;;;;;5.67;0.60;;;;;;;26.67;37.83;98612.42;1672241;83;21295;-57
2022/05/22 07:47:57;;;;;;;1.00;0.40;;;;;;;26.60;37.57;98614.08;1723250;82;21482;-57
2022/05/22 07:50:26;;;;;;;1.45;0.50;;;;;;;26.47;37.64;98603.88;1699298;83;21070;-56
2022/05/22 07:53:11;;;;;;;2.37;0.67;;;;;;;26.31;37.69;98611.69;1723447;82;20965;-57
2022/05/22 07:55:39;;;;;;;2.83;0.43;;;;;;;26.38;37.13;98602.59;1724303;82;21047;-58
2022/05/22 07:58:11;;;;;;;2.60;0.50;;;;;;;26.47;37.13;98602.55;1722237;82;20984;-65
2022/05/22 08:00:47;;;;;;;2.27;0.50;;;;;;;26.65;37.28;98593.81;1713551;83;21244;-56
2022/05/22 08:03:16;;;;;;;1.77;0.53;;;;;;;27.08;36.89;98593.89;1722969;82;20940;-58
2022/05/22 08:05:45;;;;;;;1.70;0.50;;;;;;;27.22;35.75;98588.25;1714153;82;20937;-59
2022/05/22 08:08:12;;;;;;;7.23;0.70;;;;;;;27.42;35.49;98592.70;1730448;82;22382;-58
2022/05/22 08:10:51;;;;;;;2.83;0.50;;;;;;;27.47;35.42;98598.41;1730575;82;20916;-60
2022/05/22 08:13:19;;;;;;;1.47;0.53;;;;;;;27.39;35.91;98587.48;1732068;82;20998;-58
2022/05/22 08:15:47;;;;;;;3.07;0.50;;;;;;;27.37;35.87;98591.03;1731621;82;21055;-66
2022/05/22 08:18:31;;;;;;;2.90;0.70;;;;;;;27.41;35.26;98592.48;1732446;82;21047;-58
2022/05/22 08:20:59;;;;;;;2.20;0.40;;;;;;;27.23;35.33;98589.80;1720620;83;21313;-58
2022/05/22 08:23:27;;;;;;;1.77;0.60;;;;;;;27.11;34.83;98589.24;1732805;82;21034;-62
2022/05/22 08:25:56;;;;;;;2.40;1.00;;;;;;;26.87;35.42;98598.77;1731694;82;21153;-58
2022/05/22 08:28:26;;;;;;;1.33;0.50;;;;;;;26.88;34.98;98603.55;1733090;82;21287;-58
2022/05/22 08:30:53;;;;;;;1.83;0.60;;;;;;;26.37;35.62;98606.38;1733480;82;21078;-57
2022/05/22 08:33:20;;;;;;;4.03;1.00;;;;;;;26.09;36.21;98606.13;1732299;82;21093;-59
2022/05/22 08:35:47;;;;;;;2.73;0.63;;;;;;;26.22;36.53;98612.89;1731433;82;20999;-62
2022/05/22 08:38:14;;;;;;;1.47;0.60;;;;;;;26.39;36.64;98612.16;1732365;82;21031;-59
2022/05/22 08:41:09;;;;;;;3.40;0.60;;;;;;;26.83;35.49;98601.10;1732220;82;21015;-59
2022/05/22 08:43:45;;;;;;;3.43;0.70;;;;;;;26.87;34.65;98601.44;1731867;82;21242;-59
2022/05/22 08:46:16;;;;;;;3.57;0.70;;;;;;;26.64;34.56;98600.28;1732456;82;21234;-59
2022/05/22 08:48:59;;;;;;;2.37;0.50;;;;;;;26.23;34.81;98601.09;1721185;82;21055;-58
2022/05/22 08:51:36;;;;;;;3.33;0.70;;;;;;;26.12;35.37;98610.82;1731852;82;21470;-61
2022/05/22 08:54:27;;;;;;;3.03;0.80;;;;;;;26.26;35.57;98606.56;1732730;82;21094;-57
2022/05/22 08:59:42;;;;;;;2.40;0.63;;;;;;;26.19;36.08;98595.05;1733581;82;21176;-58
2022/05/22 09:02:34;;;;;;;2.67;0.50;;;;;;;26.33;36.13;98597.47;1732934;82;20968;-58
2022/05/22 09:05:15;;;;;;;2.97;0.77;;;;;;;26.89;36.03;98595.75;1733207;82;20916;-59
2022/05/22 09:07:55;;;;;;;2.65;0.70;;;;;;;27.28;35.55;98583.69;1716356;82;24719;-66
2022/05/22 09:10:54;;;;;;;2.10;0.70;;;;;;;27.67;35.13;98575.30;1723505;82;21052;-57
2022/05/22 09:13:59;;;;;;;3.90;0.80;;;;;;;27.65;34.45;98563.57;1723209;82;21596;-62
2022/05/22 09:16:32;;;;;;;2.17;0.63;;;;;;;27.38;34.70;98577.88;1723614;82;21808;-64
2022/05/22 09:19:24;;;;;;;1.97;0.50;;;;;;;27.38;34.92;98573.86;1723723;82;21495;-57
2022/05/22 09:22:21;;;;;;;3.20;0.70;;;;;;;27.58;34.13;98575.43;1724095;83;20975;-56
2022/05/22 09:25:11;;;;;;;1.67;0.60;;;;;;;27.60;34.14;98576.63;1680502;83;21133;-56
2022/05/22 09:28:07;;;;;;;3.53;0.93;;;;;;;27.55;33.95;98568.06;1723591;82;21293;-60
2022/05/22 09:30:48;;;;;;;3.27;0.50;;;;;;;27.28;34.25;98572.99;1723894;82;21028;-55
2022/05/22 09:33:24;;;;;;;;;;;;;;;27.46;33.97;98566.05;1726115;82;21572;-63
2022/05/22 09:36:02;;;;;;;2.37;0.60;;;;;;;27.76;33.30;98559.91;1724597;82;20494;-56
2022/05/22 09:39:10;;;;;;;1.47;0.43;;;;;;;27.73;32.80;98558.67;1724461;82;21044;-56
2022/05/22 09:42:10;;;;;;;2.50;0.73;;;;;;;27.80;32.81;98560.22;1724635;82;21660;-56
2022/05/22 09:45:23;;;;;;;1.80;0.60;;;;;;;27.77;32.65;98566.81;1698973;83;21539;-57
2022/05/22 09:48:23;;;;;;;4.03;0.40;;;;;;;27.78;32.07;98557.12;1724162;83;21070;-59
2022/05/22 09:51:22;;;;;;;1.70;0.37;;;;;;;27.59;32.29;98550.98;1664062;84;21148;-55
2022/05/22 09:54:25;;;;;;;2.77;0.50;;;;;;;27.31;32.34;98558.92;1714517;83;20925;-55
2022/05/22 09:57:33;;;;;;;1.67;0.40;;;;;;;27.06;33.13;98558.69;1724530;82;21593;-56
2022/05/22 10:00:15;;;;;;;3.07;0.67;;;;;;;27.13;33.85;98554.94;1723829;83;20921;-57
2022/05/22 10:03:03;;;;;;;2.50;0.47;;;;;;;27.36;33.72;98549.34;1713613;83;21002;-56
2022/05/22 10:05:39;;;;;;;2.53;0.60;;;;;;;27.84;32.96;98542.39;1723854;83;20976;-57
2022/05/22 10:08:28;;;;;;;1.43;0.47;;;;;;;28.57;32.49;98543.22;1728917;82;21000;-55
2022/05/22 10:11:22;;;;;;;1.30;0.50;;;;;;;28.84;31.28;98534.88;1732929;82;22048;-63
2022/05/22 10:14:23;;;;;;;3.13;0.50;;;;;;;28.85;30.73;98539.89;1733348;82;20889;-55
2022/05/22 10:17:37;;;;;;;2.40;0.60;;;;;;;28.56;31.12;98548.34;1733036;82;21459;-56
2022/05/22 10:21:00;;;;;;;1.83;0.50;;;;;;;28.36;30.61;98552.20;1732721;82;21377;-55
2022/05/22 10:23:42;;;;;;;3.53;0.60;;;;;;;28.35;31.22;98548.55;1720600;81;21526;-58
2022/05/22 10:26:37;;;;;;;1.70;0.50;;;;;;;28.80;30.55;98543.41;1732907;82;21157;-56
2022/05/22 10:29:16;;;;;;;1.87;0.50;;;;;;;28.99;29.31;98528.77;1732530;82;21053;-55
2022/05/22 10:31:55;;;;;;;0.90;0.30;;;;;;;29.10;29.10;98547.80;1721399;82;21083;-54
2022/05/22 10:35:01;;;;;;;2.10;0.53;;;;;;;29.06;28.76;98545.59;1731643;82;21313;-62
2022/05/22 10:37:42;;;;;;;3.73;0.60;;;;;;;29.00;28.75;98555.80;1731968;82;21066;-63
2022/05/22 10:40:17;;;;;;;2.33;0.70;;;;;;;29.07;29.07;98546.58;1732313;82;21224;-57
2022/05/22 10:42:46;;;;;;;1.13;0.37;;;;;;;28.91;28.77;98555.17;1720968;82;21501;-55
2022/05/22 10:45:34;;;;;;;2.00;0.40;;;;;;;28.60;29.15;98557.25;1732144;82;21059;-63
2022/05/22 10:48:25;;;;;;;2.73;0.70;;;;;;;28.42;29.48;98564.07;1732465;82;21034;-57
2022/05/22 10:51:08;;;;;;;1.17;0.30;;;;;;;28.19;29.86;98562.47;1731976;82;21082;-56
2022/05/22 10:53:39;;;;;;;1.67;0.40;;;;;;;28.08;30.77;98572.88;1732369;82;21564;-55
2022/05/22 10:56:18;;;;;;;3.20;0.40;;;;;;;28.17;29.58;98561.45;1701407;83;21016;-55
2022/05/22 10:59:04;;;;;;;2.53;0.40;;;;;;;28.35;30.10;98552.00;1732167;82;21039;-56
2022/05/22 11:01:37;;;;;;;1.63;0.40;;;;;;;28.66;30.15;98553.20;1732631;82;21292;-55
2022/05/22 11:04:13;;;;;;;2.03;0.50;;;;;;;28.98;28.62;98562.63;1732678;82;21067;-63
2022/05/22 11:06:55;;;;;;;0.60;0.23;;;;;;;29.16;27.75;98558.46;1732759;82;22190;-55
2022/05/22 11:09:28;;;;;;;1.67;0.40;;;;;;;28.98;27.75;98570.67;1728170;82;21095;-55
2022/05/22 11:12:12;;;;;;;2.40;0.50;;;;;;;28.60;28.75;98567.97;1728994;82;20995;-56
2022/05/22 11:14:41;;;;;;;1.10;0.30;;;;;;;28.57;29.24;98567.34;1730021;82;20992;-55
2022/05/22 11:17:19;;;;;;;1.57;0.43;;;;;;;28.76;28.37;98570.69;1751590;81;20943;-55
2022/05/22 11:19:49;;;;;;;1.37;0.30;;;;;;;28.72;28.49;98571.94;1739704;80;21498;-55
2022/05/22 11:22:31;;;;;;;3.80;0.40;;;;;;;28.61;28.46;98571.66;1751090;81;21506;-55
2022/05/22 11:25:22;;;;;;;0.93;0.30;;;;;;;28.75;28.36;98572.59;1719995;82;20949;-55
2022/05/22 11:28:21;;;;;;;0.80;0.20;;;;;;;28.40;28.72;98575.68;1729556;82;21852;-56
2022/05/22 11:31:00;;;;;;;2.37;0.50;;;;;;;28.00;28.89;98581.84;1750994;80;21054;-57
2022/05/22 11:33:37;;;;;;;0.50;0.30;;;;;;;27.61;29.95;98580.09;1751293;81;21230;-56
2022/05/22 11:36:29;;;;;;;0.67;0.30;;;;;;;28.01;30.84;98578.04;1750891;81;21600;-56
2022/05/22 11:39:35;;;;;;;3.50;0.30;;;;;;;28.53;28.59;98570.49;1751202;81;20992;-54
2022/05/22 11:42:13;;;;;;;1.97;0.40;;;;;;;28.46;28.07;98589.06;1677954;83;21102;-56
2022/05/22 11:45:20;;;;;;;2.40;0.40;;;;;;;28.23;27.99;98582.09;1734393;81;21056;-55
2022/05/22 11:48:09;;;;;;;1.97;0.50;;;;;;;28.24;28.58;98575.05;1752016;80;21136;-55
2022/05/22 11:50:54;;;;;;;1.63;0.30;;;;;;;28.38;28.29;98565.31;1750176;81;21099;-55
2022/05/22 11:53:58;;;;;;;0.67;0.33;;;;;;;28.22;28.27;98566.55;1751151;81;21117;-55
2022/05/22 11:56:48;;;;;;;5.40;0.70;;;;;;;28.28;28.32;98573.80;1751107;81;21618;-54
2022/05/22 11:59:39;;;;;;;0.57;0.28;;;;;;;28.11;28.57;98574.89;1750278;81;21046;-56
2022/05/22 12:02:28;;;;;;;0.90;0.30;;;;;;;27.90;28.66;98573.70;1751836;80;21218;-54
2022/05/22 12:05:22;;;;;;;1.57;0.40;;;;;;;27.70;28.69;98571.95;1751197;80;20982;-55
2022/05/22 12:08:14;;;;;;;0.97;0.50;;;;;;;27.50;28.89;98570.39;1748982;81;21094;-55
2022/05/22 12:11:09;;;;;;;0.90;0.37;;;;;;;27.24;29.32;98578.79;1733142;80;22042;-55
2022/05/22 12:14:19;;;;;;;1.87;0.30;;;;;;;26.90;29.90;98570.59;1732132;82;21105;-57
2022/05/22 12:17:19;;;;;;;1.87;0.30;;;;;;;26.90;29.93;98572.71;1732956;80;22292;-58
2022/05/22 12:20:13;;;;;;;3.00;0.68;;;;;;;26.87;30.15;98577.38;1734061;80;21037;-58
2022/05/22 12:23:09;;;;;;;1.10;0.30;;;;;;;27.03;30.20;98570.05;1683710;82;21921;-62
2022/05/22 12:25:53;;;;;;;0.70;0.30;;;;;;;27.25;30.20;98564.29;1627021;84;21632;-63